Airfield :
LOGIN :

Register | Disclaimer

   EN    FR    IT 

 










Legend :    VFR   Marginal VFR   IFR   Intensive IFR   Very Intensive IFR
Visi :
Ceiling :
>= 8 km
>= 3000ft
5 to 8 km
1000 to 3000 ft
1500m to 5 km
500 to 1000 ft
800 to 1500m
200 to 500 ft
< 800m
< 200 ft
Symbols :   Thunderstorms  Fog  Heavy snow  Heavy precipitations  Wind > 20 kt
SIGMETs :     Misc.  Thunderstorms  Icing  Turbulence  Mountain Waves  Volcanic Ashes






- Airport Elevation : 2220 ft


LOXZ - Zeltweg AB

CURRENT METAR :
  • 281350Z 10003KT 30KM FEW050SC BKN070SC 21/11 Q1022 NOSIG

EXPIRED METARs :
  • 281320Z 10004KT 040V160 30KM FEW050SC BKN070SC 21/11 Q1022 NOSIG
  • 281250Z VRB04KT 30KM FEW050SC BKN070SC 22/11 Q1022 NOSIG
  • 281220Z 12004KT 080V180 30KM FEW050SC BKN070SC 21/11 Q1022 NOSIG
  • 281150Z 08006KT 050V110 30KM FEW050SC BKN070SC 21/12 Q1022 NOSIG
  • 281120Z 11005KT 070V140 30KM FEW050SC BKN080SC 20/12 Q1022 NOSIG

TAF TAF LOXZ
Valid from the 28 at 12:00 until the 28 at 21:00 UTC


281115Z 2812/2821 VRB03KT 9999 FEW060 BKN070
TEMPO 2812/2817 07008KT SCT080



MET'MAP, your aeronautical weather chart ! - Copyright ORBIFLY December 2007 - Disclaimer

ORBIFLY MET'MAP TEAM :

Programming & Development : Alexandra Zaïnal
Concept & original design : Baudouin d'Aumeries
Assistance for programming : Marc-Olivier Méhu
Technical & hardware support : Manuel Goepfert

Contact : metmap@orbifly.com




SOURCES & CREDITS :

   NOAA